sensor_id;sensor_type;location;lat;lon;timestamp;pressure;altitude;pressure_sealevel;temperature;humidity
23996;BME280;12207;50.076;8.848;2022-07-15T00:02:09;100445.06;;;16.91;61.36
23996;BME280;12207;50.076;8.848;2022-07-15T00:04:37;100443.06;;;16.82;61.66
23996;BME280;12207;50.076;8.848;2022-07-15T00:07:04;100446.44;;;16.79;61.50
23996;BME280;12207;50.076;8.848;2022-07-15T00:09:31;100443.53;;;16.70;61.63
23996;BME280;12207;50.076;8.848;2022-07-15T00:12:17;100444.47;;;16.72;61.47
23996;BME280;12207;50.076;8.848;2022-07-15T00:14:44;100441.56;;;16.61;62.61
23996;BME280;12207;50.076;8.848;2022-07-15T00:17:11;100438.22;;;16.64;61.82
23996;BME280;12207;50.076;8.848;2022-07-15T00:19:37;100441.72;;;16.66;62.34
23996;BME280;12207;50.076;8.848;2022-07-15T00:22:04;100443.44;;;16.67;61.80
23996;BME280;12207;50.076;8.848;2022-07-15T00:24:31;100440.69;;;16.61;62.45
23996;BME280;12207;50.076;8.848;2022-07-15T00:26:57;100438.88;;;16.57;62.48
23996;BME280;12207;50.076;8.848;2022-07-15T00:29:24;100441.22;;;16.51;63.47
23996;BME280;12207;50.076;8.848;2022-07-15T00:31:53;100441.88;;;16.44;64.70
23996;BME280;12207;50.076;8.848;2022-07-15T00:34:19;100446.91;;;16.40;64.61
23996;BME280;12207;50.076;8.848;2022-07-15T00:36:46;100451.78;;;16.31;64.74
23996;BME280;12207;50.076;8.848;2022-07-15T00:39:14;100450.03;;;16.30;64.49
23996;BME280;12207;50.076;8.848;2022-07-15T00:41:42;100450.84;;;16.29;64.22
23996;BME280;12207;50.076;8.848;2022-07-15T00:44:09;100439.31;;;16.18;64.51
23996;BME280;12207;50.076;8.848;2022-07-15T00:46:37;100448.91;;;16.22;63.65
23996;BME280;12207;50.076;8.848;2022-07-15T00:49:05;100452.94;;;16.14;64.60
23996;BME280;12207;50.076;8.848;2022-07-15T00:51:35;100452.47;;;16.26;64.17
23996;BME280;12207;50.076;8.848;2022-07-15T00:54:04;100452.91;;;16.12;65.00
23996;BME280;12207;50.076;8.848;2022-07-15T00:56:35;100455.09;;;16.02;65.16
23996;BME280;12207;50.076;8.848;2022-07-15T00:59:04;100456.75;;;16.00;64.85
23996;BME280;12207;50.076;8.848;2022-07-15T01:01:32;100452.47;;;16.00;64.44
23996;BME280;12207;50.076;8.848;2022-07-15T01:03:59;100444.88;;;16.03;64.61
23996;BME280;12207;50.076;8.848;2022-07-15T01:06:28;100449.66;;;15.92;64.70
23996;BME280;12207;50.076;8.848;2022-07-15T01:08:55;100452.16;;;15.91;65.14
23996;BME280;12207;50.076;8.848;2022-07-15T01:11:22;100445.94;;;15.84;65.29
23996;BME280;12207;50.076;8.848;2022-07-15T01:13:49;100449.38;;;15.85;65.64
23996;BME280;12207;50.076;8.848;2022-07-15T01:16:15;100445.47;;;15.70;65.83
23996;BME280;12207;50.076;8.848;2022-07-15T01:18:42;100447.16;;;15.70;66.70
23996;BME280;12207;50.076;8.848;2022-07-15T01:21:09;100443.78;;;15.71;66.34
23996;BME280;12207;50.076;8.848;2022-07-15T01:23:35;100462.25;;;15.61;66.78
23996;BME280;12207;50.076;8.848;2022-07-15T01:26:03;100467.38;;;15.61;66.92
23996;BME280;12207;50.076;8.848;2022-07-15T01:28:29;100465.16;;;15.46;67.91
23996;BME280;12207;50.076;8.848;2022-07-15T01:30:56;100466.84;;;15.45;67.50
23996;BME280;12207;50.076;8.848;2022-07-15T01:33:23;100467.72;;;15.46;67.23
23996;BME280;12207;50.076;8.848;2022-07-15T01:35:50;100464.06;;;15.39;67.85
23996;BME280;12207;50.076;8.848;2022-07-15T01:38:16;100469.59;;;15.26;68.45
23996;BME280;12207;50.076;8.848;2022-07-15T01:40:43;100468.66;;;15.24;68.43
23996;BME280;12207;50.076;8.848;2022-07-15T01:43:10;100470.69;;;15.10;68.73
23996;BME280;12207;50.076;8.848;2022-07-15T01:45:37;100469.22;;;15.17;68.55
23996;BME280;12207;50.076;8.848;2022-07-15T01:48:04;100466.28;;;15.06;68.61
23996;BME280;12207;50.076;8.848;2022-07-15T01:50:30;100471.97;;;14.99;69.13
23996;BME280;12207;50.076;8.848;2022-07-15T01:52:57;100477.00;;;14.96;69.18
23996;BME280;12207;50.076;8.848;2022-07-15T01:55:24;100469.25;;;14.94;69.81
23996;BME280;12207;50.076;8.848;2022-07-15T01:57:51;100478.16;;;15.02;68.98
23996;BME280;12207;50.076;8.848;2022-07-15T02:00:17;100471.72;;;14.91;69.90
23996;BME280;12207;50.076;8.848;2022-07-15T02:02:44;100469.78;;;14.86;70.23
23996;BME280;12207;50.076;8.848;2022-07-15T02:05:11;100469.97;;;14.90;70.05
23996;BME280;12207;50.076;8.848;2022-07-15T02:07:38;100463.13;;;14.91;69.79
23996;BME280;12207;50.076;8.848;2022-07-15T02:10:05;100465.59;;;14.88;69.82
23996;BME280;12207;50.076;8.848;2022-07-15T02:12:31;100473.84;;;14.80;70.73
23996;BME280;12207;50.076;8.848;2022-07-15T02:14:58;100467.63;;;14.74;71.12
23996;BME280;12207;50.076;8.848;2022-07-15T02:17:25;100472.03;;;14.78;71.07
23996;BME280;12207;50.076;8.848;2022-07-15T02:19:51;100470.66;;;14.64;72.16
23996;BME280;12207;50.076;8.848;2022-07-15T02:22:18;100459.31;;;14.58;72.59
23996;BME280;12207;50.076;8.848;2022-07-15T02:24:45;100459.44;;;14.62;72.69
23996;BME280;12207;50.076;8.848;2022-07-15T02:27:12;100460.81;;;14.53;73.25
23996;BME280;12207;50.076;8.848;2022-07-15T02:29:38;100458.25;;;14.53;73.24
23996;BME280;12207;50.076;8.848;2022-07-15T02:32:05;100456.41;;;14.51;73.22
23996;BME280;12207;50.076;8.848;2022-07-15T02:34:32;100461.38;;;14.46;73.90
23996;BME280;12207;50.076;8.848;2022-07-15T02:36:59;100461.88;;;14.38;74.20
23996;BME280;12207;50.076;8.848;2022-07-15T02:39:25;100464.38;;;14.36;74.06
23996;BME280;12207;50.076;8.848;2022-07-15T02:41:52;100457.69;;;14.40;74.38
23996;BME280;12207;50.076;8.848;2022-07-15T02:44:19;100465.41;;;14.40;75.08
23996;BME280;12207;50.076;8.848;2022-07-15T02:46:45;100467.31;;;14.45;74.13
23996;BME280;12207;50.076;8.848;2022-07-15T02:49:12;100474.13;;;14.45;74.19
23996;BME280;12207;50.076;8.848;2022-07-15T02:51:39;100467.31;;;14.45;74.31
23996;BME280;12207;50.076;8.848;2022-07-15T02:54:05;100471.53;;;14.43;74.30
23996;BME280;12207;50.076;8.848;2022-07-15T02:56:33;100484.41;;;14.45;74.15
23996;BME280;12207;50.076;8.848;2022-07-15T02:58:59;100485.34;;;14.47;74.46
23996;BME280;12207;50.076;8.848;2022-07-15T03:01:26;100487.19;;;14.49;74.59
23996;BME280;12207;50.076;8.848;2022-07-15T03:03:53;100483.44;;;14.62;74.95
23996;BME280;12207;50.076;8.848;2022-07-15T03:06:19;100488.91;;;14.71;74.47
23996;BME280;12207;50.076;8.848;2022-07-15T03:08:46;100484.97;;;14.79;74.22
23996;BME280;12207;50.076;8.848;2022-07-15T03:11:13;100491.91;;;14.82;74.25
23996;BME280;12207;50.076;8.848;2022-07-15T03:13:39;100493.84;;;14.88;73.25
23996;BME280;12207;50.076;8.848;2022-07-15T03:16:06;100499.78;;;14.87;74.15
23996;BME280;12207;50.076;8.848;2022-07-15T03:18:33;100499.03;;;14.89;73.93
23996;BME280;12207;50.076;8.848;2022-07-15T03:21:00;100503.41;;;14.92;74.39
23996;BME280;12207;50.076;8.848;2022-07-15T03:23:26;100501.69;;;14.91;74.81
23996;BME280;12207;50.076;8.848;2022-07-15T03:25:53;100503.91;;;14.81;74.86
23996;BME280;12207;50.076;8.848;2022-07-15T03:28:20;100504.94;;;14.87;73.45
23996;BME280;12207;50.076;8.848;2022-07-15T03:30:46;100511.97;;;14.91;73.47
23996;BME280;12207;50.076;8.848;2022-07-15T03:33:13;100511.09;;;14.90;74.24
23996;BME280;12207;50.076;8.848;2022-07-15T03:35:40;100514.28;;;14.85;74.19
23996;BME280;12207;50.076;8.848;2022-07-15T03:38:08;100520.06;;;14.79;74.73
23996;BME280;12207;50.076;8.848;2022-07-15T03:40:35;100523.31;;;14.75;75.02
23996;BME280;12207;50.076;8.848;2022-07-15T03:43:02;100529.16;;;14.71;75.09
23996;BME280;12207;50.076;8.848;2022-07-15T03:45:28;100528.91;;;14.65;75.21
23996;BME280;12207;50.076;8.848;2022-07-15T03:47:56;100531.53;;;14.66;75.50
23996;BME280;12207;50.076;8.848;2022-07-15T03:50:22;100535.88;;;14.67;75.78
23996;BME280;12207;50.076;8.848;2022-07-15T03:52:49;100536.53;;;14.63;75.87
23996;BME280;12207;50.076;8.848;2022-07-15T03:55:16;100535.88;;;14.67;75.26
23996;BME280;12207;50.076;8.848;2022-07-15T03:57:42;100536.53;;;14.63;75.72
23996;BME280;12207;50.076;8.848;2022-07-15T04:00:10;100533.97;;;14.63;75.74
23996;BME280;12207;50.076;8.848;2022-07-15T04:02:37;100537.81;;;14.73;75.60
23996;BME280;12207;50.076;8.848;2022-07-15T04:05:06;100537.09;;;14.77;75.66
23996;BME280;12207;50.076;8.848;2022-07-15T04:07:33;100542.47;;;14.83;75.45
23996;BME280;12207;50.076;8.848;2022-07-15T04:09:59;100545.06;;;14.83;74.78
23996;BME280;12207;50.076;8.848;2022-07-15T04:12:26;100552.00;;;14.86;74.15
23996;BME280;12207;50.076;8.848;2022-07-15T04:14:53;100541.91;;;15.13;72.87
23996;BME280;12207;50.076;8.848;2022-07-15T04:17:19;100549.00;;;15.87;70.46
23996;BME280;12207;50.076;8.848;2022-07-15T04:19:47;100550.81;;;16.67;67.90
23996;BME280;12207;50.076;8.848;2022-07-15T04:22:14;100546.09;;;17.36;65.76
23996;BME280;12207;50.076;8.848;2022-07-15T04:24:41;100547.97;;;18.02;63.60
23996;BME280;12207;50.076;8.848;2022-07-15T04:27:07;100551.44;;;18.36;61.65
23996;BME280;12207;50.076;8.848;2022-07-15T04:29:34;100554.13;;;18.74;59.96
23996;BME280;12207;50.076;8.848;2022-07-15T04:32:02;100552.97;;;19.38;58.59
23996;BME280;12207;50.076;8.848;2022-07-15T04:34:29;100554.72;;;19.80;57.05
23996;BME280;12207;50.076;8.848;2022-07-15T04:36:56;100552.00;;;20.18;54.58
23996;BME280;12207;50.076;8.848;2022-07-15T04:39:22;100546.91;;;20.74;53.32
23996;BME280;12207;50.076;8.848;2022-07-15T04:41:49;100553.41;;;21.04;53.47
23996;BME280;12207;50.076;8.848;2022-07-15T04:44:20;100553.94;;;21.41;52.24
23996;BME280;12207;50.076;8.848;2022-07-15T04:46:47;100554.22;;;21.65;51.02
23996;BME280;12207;50.076;8.848;2022-07-15T04:49:14;100549.28;;;21.87;50.53
23996;BME280;12207;50.076;8.848;2022-07-15T04:51:59;100555.59;;;22.10;48.85
23996;BME280;12207;50.076;8.848;2022-07-15T04:54:26;100560.16;;;22.31;48.94
23996;BME280;12207;50.076;8.848;2022-07-15T04:56:52;100554.84;;;22.20;48.50
23996;BME280;12207;50.076;8.848;2022-07-15T04:59:19;100561.22;;;22.55;48.82
23996;BME280;12207;50.076;8.848;2022-07-15T05:01:46;100553.22;;;20.91;50.90
23996;BME280;12207;50.076;8.848;2022-07-15T05:04:12;100547.47;;;21.14;52.00
23996;BME280;12207;50.076;8.848;2022-07-15T05:06:39;100553.97;;;20.34;54.34
23996;BME280;12207;50.076;8.848;2022-07-15T05:09:06;100555.03;;;20.44;55.17
23996;BME280;12207;50.076;8.848;2022-07-15T05:11:32;100559.31;;;20.42;54.54
23996;BME280;12207;50.076;8.848;2022-07-15T05:13:59;100562.44;;;19.77;56.67
23996;BME280;12207;50.076;8.848;2022-07-15T05:16:26;100565.94;;;20.75;53.97
23996;BME280;12207;50.076;8.848;2022-07-15T05:18:52;100556.22;;;21.21;52.73
23996;BME280;12207;50.076;8.848;2022-07-15T05:21:19;100564.44;;;20.39;53.85
23996;BME280;12207;50.076;8.848;2022-07-15T05:23:46;100563.69;;;19.97;55.77
23996;BME280;12207;50.076;8.848;2022-07-15T05:26:13;100569.41;;;19.79;56.64
23996;BME280;12207;50.076;8.848;2022-07-15T05:28:39;100571.59;;;19.63;57.88
23996;BME280;12207;50.076;8.848;2022-07-15T05:31:07;100578.00;;;19.38;58.68
23996;BME280;12207;50.076;8.848;2022-07-15T05:33:34;100574.53;;;18.63;60.30
23996;BME280;12207;50.076;8.848;2022-07-15T05:36:01;100579.91;;;18.37;61.97
23996;BME280;12207;50.076;8.848;2022-07-15T05:38:27;100585.97;;;18.06;63.75
23996;BME280;12207;50.076;8.848;2022-07-15T05:40:54;100584.09;;;18.01;63.65
23996;BME280;12207;50.076;8.848;2022-07-15T05:43:21;100590.56;;;17.85;64.16
23996;BME280;12207;50.076;8.848;2022-07-15T05:45:48;100594.34;;;17.67;65.71
23996;BME280;12207;50.076;8.848;2022-07-15T05:48:14;100586.41;;;17.61;65.54
23996;BME280;12207;50.076;8.848;2022-07-15T05:50:41;100593.00;;;17.51;65.80
23996;BME280;12207;50.076;8.848;2022-07-15T05:53:08;100600.91;;;17.86;64.85
23996;BME280;12207;50.076;8.848;2022-07-15T05:55:34;100604.53;;;17.93;65.53
23996;BME280;12207;50.076;8.848;2022-07-15T05:58:04;100607.22;;;17.96;64.61
23996;BME280;12207;50.076;8.848;2022-07-15T06:00:31;100610.63;;;17.95;64.92
23996;BME280;12207;50.076;8.848;2022-07-15T06:02:58;100611.84;;;17.77;65.09
23996;BME280;12207;50.076;8.848;2022-07-15T06:05:25;100612.59;;;17.75;65.82
23996;BME280;12207;50.076;8.848;2022-07-15T06:07:52;100618.38;;;17.95;65.23
23996;BME280;12207;50.076;8.848;2022-07-15T06:10:18;100609.38;;;17.81;65.54
23996;BME280;12207;50.076;8.848;2022-07-15T06:12:45;100613.25;;;17.96;66.04
23996;BME280;12207;50.076;8.848;2022-07-15T06:15:12;100615.72;;;17.92;65.62
23996;BME280;12207;50.076;8.848;2022-07-15T06:17:39;100614.88;;;17.93;65.63
23996;BME280;12207;50.076;8.848;2022-07-15T06:20:06;100609.84;;;18.62;63.71
23996;BME280;12207;50.076;8.848;2022-07-15T06:22:33;100613.03;;;19.22;60.84
23996;BME280;12207;50.076;8.848;2022-07-15T06:25:00;100618.28;;;19.25;61.55
23996;BME280;12207;50.076;8.848;2022-07-15T06:27:29;100628.91;;;19.37;60.97
23996;BME280;12207;50.076;8.848;2022-07-15T06:29:57;100615.53;;;19.19;61.47
23996;BME280;12207;50.076;8.848;2022-07-15T06:32:24;100616.72;;;18.95;63.09
23996;BME280;12207;50.076;8.848;2022-07-15T06:34:51;100608.97;;;18.97;63.00
23996;BME280;12207;50.076;8.848;2022-07-15T06:37:17;100619.19;;;18.90;62.41
23996;BME280;12207;50.076;8.848;2022-07-15T06:39:44;100618.66;;;18.71;64.31
23996;BME280;12207;50.076;8.848;2022-07-15T06:42:11;100617.16;;;18.77;64.18
23996;BME280;12207;50.076;8.848;2022-07-15T06:44:37;100621.94;;;19.74;62.03
23996;BME280;12207;50.076;8.848;2022-07-15T06:47:04;100625.28;;;20.58;58.61
23996;BME280;12207;50.076;8.848;2022-07-15T06:49:36;100618.25;;;20.51;58.40
23996;BME280;12207;50.076;8.848;2022-07-15T06:52:03;100611.63;;;20.66;57.78
23996;BME280;12207;50.076;8.848;2022-07-15T06:54:30;100626.28;;;21.19;56.84
23996;BME280;12207;50.076;8.848;2022-07-15T06:56:57;100620.25;;;20.67;57.83
23996;BME280;12207;50.076;8.848;2022-07-15T06:59:24;100613.47;;;20.26;59.05
23996;BME280;12207;50.076;8.848;2022-07-15T07:01:52;100622.44;;;20.44;58.75
23996;BME280;12207;50.076;8.848;2022-07-15T07:04:19;100615.81;;;20.13;59.71
23996;BME280;12207;50.076;8.848;2022-07-15T07:06:46;100621.94;;;19.74;62.13
23996;BME280;12207;50.076;8.848;2022-07-15T07:09:13;100610.41;;;20.49;59.57
23996;BME280;12207;50.076;8.848;2022-07-15T07:11:40;100617.56;;;20.61;59.46
23996;BME280;12207;50.076;8.848;2022-07-15T07:14:07;100621.44;;;21.41;57.48
23996;BME280;12207;50.076;8.848;2022-07-15T07:16:34;100617.31;;;21.56;56.77
23996;BME280;12207;50.076;8.848;2022-07-15T07:19:01;100618.19;;;20.98;57.37
23996;BME280;12207;50.076;8.848;2022-07-15T07:21:28;100618.56;;;20.67;59.14
23996;BME280;12207;50.076;8.848;2022-07-15T07:23:54;100618.25;;;21.01;57.50
23996;BME280;12207;50.076;8.848;2022-07-15T07:26:21;100626.25;;;21.16;57.98
23996;BME280;12207;50.076;8.848;2022-07-15T07:28:48;100620.53;;;20.82;58.12
23996;BME280;12207;50.076;8.848;2022-07-15T07:31:15;100624.44;;;21.71;55.71
23996;BME280;12207;50.076;8.848;2022-07-15T07:33:42;100624.03;;;21.39;56.72
23996;BME280;12207;50.076;8.848;2022-07-15T07:36:09;100633.78;;;21.57;56.74
23996;BME280;12207;50.076;8.848;2022-07-15T07:38:36;100630.00;;;20.80;58.55
23996;BME280;12207;50.076;8.848;2022-07-15T07:41:04;100624.78;;;21.35;56.85
23996;BME280;12207;50.076;8.848;2022-07-15T07:43:30;100626.50;;;21.34;57.45
23996;BME280;12207;50.076;8.848;2022-07-15T07:45:59;100626.66;;;20.86;58.27
23996;BME280;12207;50.076;8.848;2022-07-15T07:48:25;100624.50;;;21.15;57.51
23996;BME280;12207;50.076;8.848;2022-07-15T07:50:53;100624.69;;;21.29;57.42
23996;BME280;12207;50.076;8.848;2022-07-15T07:53:20;100630.75;;;21.90;56.16
23996;BME280;12207;50.076;8.848;2022-07-15T07:55:47;100618.50;;;22.59;54.11
23996;BME280;12207;50.076;8.848;2022-07-15T07:58:14;100624.63;;;21.85;55.24
23996;BME280;12207;50.076;8.848;2022-07-15T08:00:43;100631.03;;;21.46;56.61
23996;BME280;12207;50.076;8.848;2022-07-15T08:03:10;100633.03;;;21.06;57.69
23996;BME280;12207;50.076;8.848;2022-07-15T08:05:37;100630.78;;;20.75;59.20
23996;BME280;12207;50.076;8.848;2022-07-15T08:08:15;100632.00;;;20.46;60.33
23996;BME280;12207;50.076;8.848;2022-07-15T08:10:45;100634.09;;;21.21;58.75
23996;BME280;12207;50.076;8.848;2022-07-15T08:13:12;100630.03;;;21.36;57.20
23996;BME280;12207;50.076;8.848;2022-07-15T08:15:40;100621.16;;;21.24;58.41
23996;BME280;12207;50.076;8.848;2022-07-15T08:18:07;100625.22;;;21.63;56.03
23996;BME280;12207;50.076;8.848;2022-07-15T08:20:35;100624.91;;;22.13;55.21
23996;BME280;12207;50.076;8.848;2022-07-15T08:23:03;100627.94;;;22.46;54.12
23996;BME280;12207;50.076;8.848;2022-07-15T08:25:33;100628.38;;;22.12;54.72
23996;BME280;12207;50.076;8.848;2022-07-15T08:28:01;100613.06;;;22.36;53.92
23996;BME280;12207;50.076;8.848;2022-07-15T08:30:29;100619.75;;;23.03;53.88
23996;BME280;12207;50.076;8.848;2022-07-15T08:32:56;100624.97;;;23.07;52.12
23996;BME280;12207;50.076;8.848;2022-07-15T08:35:24;100626.28;;;22.56;52.68
23996;BME280;12207;50.076;8.848;2022-07-15T08:37:51;100619.31;;;22.52;53.94
23996;BME280;12207;50.076;8.848;2022-07-15T08:40:18;100621.41;;;22.07;53.07
23996;BME280;12207;50.076;8.848;2022-07-15T08:42:45;100611.56;;;22.60;52.18
23996;BME280;12207;50.076;8.848;2022-07-15T08:45:14;100611.28;;;22.29;52.52
23996;BME280;12207;50.076;8.848;2022-07-15T08:47:44;100620.59;;;22.10;52.36
23996;BME280;12207;50.076;8.848;2022-07-15T08:50:13;100618.25;;;22.32;54.54
23996;BME280;12207;50.076;8.848;2022-07-15T08:52:42;100619.06;;;23.33;50.63
23996;BME280;12207;50.076;8.848;2022-07-15T08:55:10;100626.81;;;23.17;49.58
23996;BME280;12207;50.076;8.848;2022-07-15T08:57:37;100627.34;;;22.81;50.35
23996;BME280;12207;50.076;8.848;2022-07-15T09:00:05;100625.31;;;22.46;50.96
23996;BME280;12207;50.076;8.848;2022-07-15T09:02:38;100632.03;;;22.26;51.33
23996;BME280;12207;50.076;8.848;2022-07-15T09:05:29;100631.31;;;22.39;50.87
23996;BME280;12207;50.076;8.848;2022-07-15T09:07:58;100635.44;;;23.16;50.55
23996;BME280;12207;50.076;8.848;2022-07-15T09:11:11;100626.25;;;22.53;49.54
23996;BME280;12207;50.076;8.848;2022-07-15T09:15:49;100625.28;;;21.70;50.97
23996;BME280;12207;50.076;8.848;2022-07-15T09:18:18;100634.66;;;22.27;50.41
23996;BME280;12207;50.076;8.848;2022-07-15T09:20:46;100628.00;;;22.57;50.86
23996;BME280;12207;50.076;8.848;2022-07-15T09:23:20;100625.91;;;22.21;50.46
23996;BME280;12207;50.076;8.848;2022-07-15T09:26:21;100622.13;;;22.80;48.92
23996;BME280;12207;50.076;8.848;2022-07-15T09:28:47;100629.53;;;23.39;48.11
23996;BME280;12207;50.076;8.848;2022-07-15T09:31:31;100619.84;;;22.20;48.83
23996;BME280;12207;50.076;8.848;2022-07-15T09:34:17;100629.09;;;22.82;48.01
23996;BME280;12207;50.076;8.848;2022-07-15T09:36:46;100622.81;;;22.60;48.32
23996;BME280;12207;50.076;8.848;2022-07-15T09:39:17;100624.84;;;22.90;47.79
23996;BME280;12207;50.076;8.848;2022-07-15T09:41:47;100629.41;;;23.22;48.02
23996;BME280;12207;50.076;8.848;2022-07-15T09:44:22;100630.44;;;23.44;46.17
23996;BME280;12207;50.076;8.848;2022-07-15T09:47:02;100626.72;;;23.07;47.36
23996;BME280;12207;50.076;8.848;2022-07-15T09:49:33;100629.66;;;22.46;48.75
23996;BME280;12207;50.076;8.848;2022-07-15T09:52:05;100636.56;;;22.45;48.70
23996;BME280;12207;50.076;8.848;2022-07-15T09:54:40;100638.22;;;22.36;49.17
23996;BME280;12207;50.076;8.848;2022-07-15T09:57:11;100629.16;;;22.88;48.59
23996;BME280;12207;50.076;8.848;2022-07-15T09:59:44;100633.69;;;22.18;49.21
23996;BME280;12207;50.076;8.848;2022-07-15T10:02:13;100633.19;;;22.54;48.70
23996;BME280;12207;50.076;8.848;2022-07-15T10:04:40;100645.78;;;23.04;47.11
23996;BME280;12207;50.076;8.848;2022-07-15T10:07:07;100644.13;;;23.15;46.48
23996;BME280;12207;50.076;8.848;2022-07-15T10:09:36;100635.13;;;24.19;45.76
23996;BME280;12207;50.076;8.848;2022-07-15T10:12:18;100629.09;;;25.27;42.15
23996;BME280;12207;50.076;8.848;2022-07-15T10:14:56;100628.25;;;25.20;42.38
23996;BME280;12207;50.076;8.848;2022-07-15T10:17:36;100628.19;;;24.38;43.60
23996;BME280;12207;50.076;8.848;2022-07-15T10:20:24;100631.69;;;24.40;43.95
23996;BME280;12207;50.076;8.848;2022-07-15T10:23:13;100619.53;;;25.01;43.95
23996;BME280;12207;50.076;8.848;2022-07-15T10:28:50;100620.44;;;24.76;43.61
23996;BME280;12207;50.076;8.848;2022-07-15T10:31:25;100619.44;;;24.11;44.49
23996;BME280;12207;50.076;8.848;2022-07-15T10:39:15;100618.28;;;23.46;47.89
23996;BME280;12207;50.076;8.848;2022-07-15T10:42:01;100604.13;;;23.04;46.10
23996;BME280;12207;50.076;8.848;2022-07-15T10:49:48;100615.78;;;23.66;44.64
23996;BME280;12207;50.076;8.848;2022-07-15T10:52:21;100608.69;;;23.36;44.78
23996;BME280;12207;50.076;8.848;2022-07-15T10:55:04;100613.16;;;23.67;43.98
23996;BME280;12207;50.076;8.848;2022-07-15T10:57:50;100608.44;;;22.99;46.35
23996;BME280;12207;50.076;8.848;2022-07-15T11:00:34;100599.78;;;23.02;46.77
23996;BME280;12207;50.076;8.848;2022-07-15T11:03:09;100601.59;;;23.13;45.30
23996;BME280;12207;50.076;8.848;2022-07-15T11:13:56;100579.38;;;23.87;43.22
23996;BME280;12207;50.076;8.848;2022-07-15T11:16:23;100585.38;;;23.68;44.01
23996;BME280;12207;50.076;8.848;2022-07-15T11:21:19;100579.16;;;23.37;43.17
23996;BME280;12207;50.076;8.848;2022-07-15T11:23:50;100582.69;;;23.50;43.95
23996;BME280;12207;50.076;8.848;2022-07-15T11:26:18;100582.81;;;23.71;43.12
23996;BME280;12207;50.076;8.848;2022-07-15T11:28:56;100577.66;;;23.88;42.31
23996;BME280;12207;50.076;8.848;2022-07-15T11:31:24;100572.53;;;24.37;41.16
23996;BME280;12207;50.076;8.848;2022-07-15T11:33:55;100576.06;;;24.42;41.81
23996;BME280;12207;50.076;8.848;2022-07-15T11:36:23;100562.09;;;24.42;40.04
23996;BME280;12207;50.076;8.848;2022-07-15T11:38:50;100570.78;;;24.34;41.70
23996;BME280;12207;50.076;8.848;2022-07-15T11:41:17;100574.31;;;24.50;41.11
23996;BME280;12207;50.076;8.848;2022-07-15T11:46:48;100559.34;;;23.73;43.21
23996;BME280;12207;50.076;8.848;2022-07-15T11:49:28;100554.19;;;23.88;43.58
23996;BME280;12207;50.076;8.848;2022-07-15T11:51:55;100555.97;;;23.95;42.48
23996;BME280;12207;50.076;8.848;2022-07-15T11:54:22;100560.25;;;23.82;43.29
23996;BME280;12207;50.076;8.848;2022-07-15T11:56:56;100572.31;;;23.60;43.20
23996;BME280;12207;50.076;8.848;2022-07-15T11:59:23;100563.81;;;24.29;42.25
23996;BME280;12207;50.076;8.848;2022-07-15T12:02:07;100563.00;;;24.58;40.31
23996;BME280;12207;50.076;8.848;2022-07-15T12:04:34;100562.09;;;24.36;40.74
23996;BME280;12207;50.076;8.848;2022-07-15T12:07:02;100556.81;;;23.99;41.64
23996;BME280;12207;50.076;8.848;2022-07-15T12:09:46;100561.19;;;23.95;42.50
23996;BME280;12207;50.076;8.848;2022-07-15T12:12:13;100563.72;;;23.74;42.40
23996;BME280;12207;50.076;8.848;2022-07-15T12:14:41;100559.44;;;23.99;42.25
23996;BME280;12207;50.076;8.848;2022-07-15T12:17:08;100567.78;;;23.26;43.31
23996;BME280;12207;50.076;8.848;2022-07-15T12:19:36;100562.31;;;22.86;44.32
23996;BME280;12207;50.076;8.848;2022-07-15T12:22:08;100557.84;;;22.68;44.62
23996;BME280;12207;50.076;8.848;2022-07-15T12:24:44;100564.16;;;22.99;44.24
23996;BME280;12207;50.076;8.848;2022-07-15T12:27:12;100561.84;;;23.45;43.25
23996;BME280;12207;50.076;8.848;2022-07-15T12:29:40;100561.88;;;23.54;43.13
23996;BME280;12207;50.076;8.848;2022-07-15T12:32:09;100557.63;;;23.75;42.80
23996;BME280;12207;50.076;8.848;2022-07-15T12:35:03;100563.31;;;23.02;43.98
23996;BME280;12207;50.076;8.848;2022-07-15T12:40:07;100552.19;;;23.32;45.24
23996;BME280;12207;50.076;8.848;2022-07-15T12:42:44;100558.34;;;23.46;43.32
23996;BME280;12207;50.076;8.848;2022-07-15T12:45:26;100550.69;;;23.78;43.27
23996;BME280;12207;50.076;8.848;2022-07-15T12:53:17;100557.44;;;25.92;38.73
23996;BME280;12207;50.076;8.848;2022-07-15T12:55:46;100556.66;;;25.67;39.47
23996;BME280;12207;50.076;8.848;2022-07-15T12:58:15;100553.06;;;25.95;38.04
23996;BME280;12207;50.076;8.848;2022-07-15T13:00:44;100560.69;;;26.30;36.59
23996;BME280;12207;50.076;8.848;2022-07-15T13:03:11;100555.06;;;26.77;36.08
23996;BME280;12207;50.076;8.848;2022-07-15T13:05:42;100546.69;;;26.32;37.38
23996;BME280;12207;50.076;8.848;2022-07-15T13:08:11;100550.44;;;25.93;37.02
23996;BME280;12207;50.076;8.848;2022-07-15T13:10:42;100542.09;;;24.82;38.05
23996;BME280;12207;50.076;8.848;2022-07-15T13:13:11;100544.59;;;25.36;37.89
23996;BME280;12207;50.076;8.848;2022-07-15T13:15:39;100543.28;;;26.20;37.07
23996;BME280;12207;50.076;8.848;2022-07-15T13:18:06;100534.91;;;26.82;35.13
23996;BME280;12207;50.076;8.848;2022-07-15T13:20:33;100520.78;;;25.99;36.20
23996;BME280;12207;50.076;8.848;2022-07-15T13:23:01;100524.75;;;26.49;36.89
23996;BME280;12207;50.076;8.848;2022-07-15T13:25:29;100524.88;;;27.24;34.12
23996;BME280;12207;50.076;8.848;2022-07-15T13:27:56;100518.28;;;27.62;33.86
23996;BME280;12207;50.076;8.848;2022-07-15T13:30:24;100510.59;;;27.50;32.50
23996;BME280;12207;50.076;8.848;2022-07-15T13:32:51;100509.84;;;27.40;33.69
23996;BME280;12207;50.076;8.848;2022-07-15T13:35:18;100504.28;;;27.65;32.56
23996;BME280;12207;50.076;8.848;2022-07-15T13:37:44;100507.78;;;27.64;33.92